sensor_id;sensor_type;location;lat;lon;timestamp;pressure;altitude;pressure_sealevel;temperature;humidity
43281;BME280;62175;49.416;8.690;2023-01-28T00:02:11;101299.02;;;6.98;47.66
43281;BME280;62175;49.416;8.690;2023-01-28T00:04:39;101298.75;;;7.31;47.23
43281;BME280;62175;49.416;8.690;2023-01-28T00:07:06;101297.08;;;7.46;47.63
43281;BME280;62175;49.416;8.690;2023-01-28T00:09:34;101300.23;;;7.34;47.76
43281;BME280;62175;49.416;8.690;2023-01-28T00:12:01;101294.44;;;7.63;46.97
43281;BME280;62175;49.416;8.690;2023-01-28T00:14:29;101295.38;;;7.38;46.52
43281;BME280;62175;49.416;8.690;2023-01-28T00:16:57;101295.44;;;7.25;46.72
43281;BME280;62175;49.416;8.690;2023-01-28T00:19:24;101292.11;;;7.36;47.69
43281;BME280;62175;49.416;8.690;2023-01-28T00:21:51;101293.90;;;7.45;47.70
43281;BME280;62175;49.416;8.690;2023-01-28T00:24:19;101295.78;;;7.13;46.85
43281;BME280;62175;49.416;8.690;2023-01-28T00:26:46;101296.08;;;7.10;46.11
43281;BME280;62175;49.416;8.690;2023-01-28T00:29:13;101292.99;;;7.17;46.26
43281;BME280;62175;49.416;8.690;2023-01-28T00:31:41;101291.93;;;7.39;47.01
43281;BME280;62175;49.416;8.690;2023-01-28T00:34:08;101290.06;;;7.25;46.14
43281;BME280;62175;49.416;8.690;2023-01-28T00:36:36;101287.44;;;7.65;45.04
43281;BME280;62175;49.416;8.690;2023-01-28T00:39:05;101283.42;;;7.47;46.87
43281;BME280;62175;49.416;8.690;2023-01-28T00:41:32;101285.01;;;7.13;46.52
43281;BME280;62175;49.416;8.690;2023-01-28T00:44:00;101278.91;;;7.12;47.14
43281;BME280;62175;49.416;8.690;2023-01-28T00:46:27;101275.74;;;7.35;45.63
43281;BME280;62175;49.416;8.690;2023-01-28T00:48:55;101282.61;;;7.06;46.50
43281;BME280;62175;49.416;8.690;2023-01-28T00:51:22;101280.92;;;7.47;46.43
43281;BME280;62175;49.416;8.690;2023-01-28T00:53:50;101278.75;;;7.26;46.75
43281;BME280;62175;49.416;8.690;2023-01-28T00:56:17;101273.02;;;7.52;46.75
43281;BME280;62175;49.416;8.690;2023-01-28T00:58:45;101274.51;;;7.74;46.83
43281;BME280;62175;49.416;8.690;2023-01-28T01:01:15;101274.73;;;7.53;46.61
43281;BME280;62175;49.416;8.690;2023-01-28T01:03:43;101276.43;;;6.98;47.05
43281;BME280;62175;49.416;8.690;2023-01-28T01:06:16;101280.15;;;7.19;46.54
43281;BME280;62175;49.416;8.690;2023-01-28T01:08:44;101283.56;;;7.57;47.75
43281;BME280;62175;49.416;8.690;2023-01-28T01:11:11;101282.39;;;7.26;46.35
43281;BME280;62175;49.416;8.690;2023-01-28T01:13:40;101286.91;;;7.34;46.31
43281;BME280;62175;49.416;8.690;2023-01-28T01:16:10;101289.93;;;6.96;46.43
43281;BME280;62175;49.416;8.690;2023-01-28T01:18:38;101288.15;;;7.55;47.32
43281;BME280;62175;49.416;8.690;2023-01-28T01:21:07;101292.24;;;7.11;47.08
43281;BME280;62175;49.416;8.690;2023-01-28T01:23:34;101292.38;;;7.55;46.67
43281;BME280;62175;49.416;8.690;2023-01-28T01:26:02;101291.74;;;7.10;47.14
43281;BME280;62175;49.416;8.690;2023-01-28T01:28:31;101298.50;;;7.38;47.50
43281;BME280;62175;49.416;8.690;2023-01-28T01:30:59;101300.92;;;6.82;47.56
43281;BME280;62175;49.416;8.690;2023-01-28T01:33:27;101300.42;;;7.44;48.38
43281;BME280;62175;49.416;8.690;2023-01-28T01:35:54;101298.13;;;7.46;47.24
43281;BME280;62175;49.416;8.690;2023-01-28T01:38:22;101297.89;;;7.50;47.13
43281;BME280;62175;49.416;8.690;2023-01-28T01:40:49;101299.73;;;6.97;46.84
43281;BME280;62175;49.416;8.690;2023-01-28T01:43:19;101305.37;;;7.29;47.74
43281;BME280;62175;49.416;8.690;2023-01-28T01:45:48;101307.00;;;6.99;47.70
43281;BME280;62175;49.416;8.690;2023-01-28T01:48:19;101304.49;;;7.01;47.19
43281;BME280;62175;49.416;8.690;2023-01-28T01:51:20;101308.05;;;7.38;48.23
43281;BME280;62175;49.416;8.690;2023-01-28T23:02:58;101834.85;;;5.28;39.37
43281;BME280;62175;49.416;8.690;2023-01-28T23:05:26;101830.29;;;5.46;39.63
43281;BME280;62175;49.416;8.690;2023-01-28T23:07:54;101840.10;;;5.53;39.12
43281;BME280;62175;49.416;8.690;2023-01-28T23:10:29;101836.82;;;5.78;39.40
43281;BME280;62175;49.416;8.690;2023-01-28T23:12:56;101830.62;;;5.67;39.05
43281;BME280;62175;49.416;8.690;2023-01-28T23:15:24;101829.90;;;6.14;38.87
43281;BME280;62175;49.416;8.690;2023-01-28T23:17:51;101830.68;;;5.90;39.27
43281;BME280;62175;49.416;8.690;2023-01-28T23:20:19;101830.70;;;5.95;39.41
43281;BME280;62175;49.416;8.690;2023-01-28T23:22:47;101837.16;;;6.01;39.58
43281;BME280;62175;49.416;8.690;2023-01-28T23:25:14;101841.29;;;5.74;39.12
43281;BME280;62175;49.416;8.690;2023-01-28T23:27:41;101842.81;;;6.00;39.36
43281;BME280;62175;49.416;8.690;2023-01-28T23:30:10;101846.32;;;5.95;39.17
43281;BME280;62175;49.416;8.690;2023-01-28T23:32:40;101850.12;;;6.12;39.68
43281;BME280;62175;49.416;8.690;2023-01-28T23:35:09;101847.86;;;5.81;39.53
43281;BME280;62175;49.416;8.690;2023-01-28T23:37:37;101844.13;;;5.76;39.06
43281;BME280;62175;49.416;8.690;2023-01-28T23:40:05;101838.91;;;5.97;38.96
43281;BME280;62175;49.416;8.690;2023-01-28T23:42:32;101837.32;;;6.00;38.86
43281;BME280;62175;49.416;8.690;2023-01-28T23:45:00;101833.16;;;5.76;39.33
43281;BME280;62175;49.416;8.690;2023-01-28T23:47:27;101831.36;;;5.93;39.40
43281;BME280;62175;49.416;8.690;2023-01-28T23:49:55;101834.35;;;5.71;39.46
43281;BME280;62175;49.416;8.690;2023-01-28T23:52:22;101841.85;;;5.67;39.07
43281;BME280;62175;49.416;8.690;2023-01-28T23:54:50;101843.29;;;5.74;40.51
43281;BME280;62175;49.416;8.690;2023-01-28T23:57:18;101841.96;;;5.86;39.16
43281;BME280;62175;49.416;8.690;2023-01-28T23:59:46;101836.23;;;5.59;39.90
